VDSR Airport Information

Runway Information
Runway 05 Length 8366 ft width 148 ft
Elevation 51 ft Threshold 0 ft Heading 48
Runway 23 Length 8366 ft Width 148 ft
Elevation 60 ft Threshold 0 ft Heading 228
Airport Frequencies
Type APP Name APP Frequency 124.3 MHZ
Type ATIS Name ATIS Frequency 129.95 MHZ
Type TWR Name TWR Frequency 118.5 MHZ
Airport Navaids
Type NDB Name Siem Reap Frequency 441 KHZ
Type VOR-DME Name Siem Reap Frequency 113800 KHZ
Airport Weather Information & NOTAM
ADDS - METARS form results

(1854 UTC 22 March 2019)
Data provider http://aviationweather.gov/metar/data/
 
METAR text: VDSR 221830Z 11002KT 9000 NSC 28/24 Q1007
Conditions at: VDSR (SIEMREAP , KH) observed 1830 UTC 22 March 2019
Temperature: 28.0°C (82°F)
Dewpoint: 24.0°C (75°F) [RH = 79%]
Pressure (altimeter): 29.73 inches Hg (1007.0 mb)
Winds: from the ESE (110 degrees) at 2 MPH (2 knots; 1.0 m/s)
Visibility: 6 miles ( 9 km)
Ceiling: at least 12,000 feet AGL
Clouds: sky clear below 12,000 feet AGL
Weather: no significant weather observed at this time

METAR text: VDSR 221800Z VRB02KT 9000 NSC 28/24 Q1007
Conditions at: VDSR (SIEMREAP , KH) observed 1800 UTC 22 March 2019
Temperature: 28.0°C (82°F)
Dewpoint: 24.0°C (75°F) [RH = 79%]
Pressure (altimeter): 29.73 inches Hg (1007.0 mb)
Winds: variable direction winds at 2 MPH (2 knots; 1.0 m/s)
Visibility: 6 miles ( 9 km)
Ceiling: at least 12,000 feet AGL
Clouds: sky clear below 12,000 feet AGL
Weather: no significant weather observed at this time

Forecast for: VDSR (SIEMREAP , KH)
Text: TAF VDSR 221700Z 2218/2312 21007KT 9999 FEW017
Forecast period: 1800 UTC 22 March 2019 to 1200 UTC 23 March 2019
Forecast type: FROM: standard forecast or significant change
Winds: from the SSW (210 degrees) at 8 MPH (7 knots; 3.6 m/s)
Visibility: 6 or more miles 10+ km)
Ceiling: at least 12,000 feet AGL
Clouds: few clouds at 1700 feet AGL
Weather: no significant weather forecast for this period